sensor_id;sensor_type;location;lat;lon;timestamp;pressure;altitude;pressure_sealevel;temperature;humidity
55277;BME280;41136;51.478;-2.610;2023-03-11T00:00:52;100060.27;;;5.88;75.13
55277;BME280;41136;51.478;-2.610;2023-03-11T00:03:19;100062.61;;;5.97;74.74
55277;BME280;41136;51.478;-2.610;2023-03-11T00:05:45;100064.64;;;5.97;75.73
55277;BME280;41136;51.478;-2.610;2023-03-11T00:08:13;100064.51;;;6.02;75.35
55277;BME280;41136;51.478;-2.610;2023-03-11T00:10:36;100070.05;;;6.00;75.24
55277;BME280;41136;51.478;-2.610;2023-03-11T00:13:00;100067.72;;;6.30;75.29
55277;BME280;41136;51.478;-2.610;2023-03-11T00:15:26;100072.81;;;6.48;74.69
55277;BME280;41136;51.478;-2.610;2023-03-11T00:17:51;100065.00;;;6.53;74.15
55277;BME280;41136;51.478;-2.610;2023-03-11T00:20:19;100052.34;;;6.49;74.02
55277;BME280;41136;51.478;-2.610;2023-03-11T00:22:41;100059.19;;;5.84;74.15
55277;BME280;41136;51.478;-2.610;2023-03-11T00:25:09;100056.65;;;6.21;74.06
55277;BME280;41136;51.478;-2.610;2023-03-11T00:27:33;100065.64;;;5.76;74.86
55277;BME280;41136;51.478;-2.610;2023-03-11T00:29:57;100059.90;;;5.87;75.25
55277;BME280;41136;51.478;-2.610;2023-03-11T00:32:22;100058.36;;;5.64;75.35
55277;BME280;41136;51.478;-2.610;2023-03-11T00:34:48;100064.29;;;5.58;76.98
55277;BME280;41136;51.478;-2.610;2023-03-11T00:37:13;100067.98;;;5.49;77.56
55277;BME280;41136;51.478;-2.610;2023-03-11T00:39:39;100062.95;;;5.78;76.61
55277;BME280;41136;51.478;-2.610;2023-03-11T00:42:05;100064.48;;;5.73;76.24
55277;BME280;41136;51.478;-2.610;2023-03-11T00:44:30;100059.26;;;6.13;76.12
55277;BME280;41136;51.478;-2.610;2023-03-11T00:46:56;100062.73;;;5.93;75.51
55277;BME280;41136;51.478;-2.610;2023-03-11T00:49:21;100073.06;;;5.50;75.74
55277;BME280;41136;51.478;-2.610;2023-03-11T00:51:46;100065.39;;;5.82;75.02
55277;BME280;41136;51.478;-2.610;2023-03-11T00:54:12;100054.71;;;5.90;74.79
55277;BME280;41136;51.478;-2.610;2023-03-11T00:56:38;100050.64;;;5.78;75.39
55277;BME280;41136;51.478;-2.610;2023-03-11T00:59:03;100048.30;;;6.01;74.24
55277;BME280;41136;51.478;-2.610;2023-03-11T01:01:29;100048.34;;;6.01;74.07
55277;BME280;41136;51.478;-2.610;2023-03-11T01:03:55;100057.90;;;5.26;75.64
55277;BME280;41136;51.478;-2.610;2023-03-11T01:06:21;100056.13;;;5.84;75.20
55277;BME280;41136;51.478;-2.610;2023-03-11T01:08:46;100049.90;;;6.12;73.92
55277;BME280;41136;51.478;-2.610;2023-03-11T01:11:11;100057.64;;;5.18;75.13
55277;BME280;41136;51.478;-2.610;2023-03-11T01:13:38;100059.02;;;5.40;75.77
55277;BME280;41136;51.478;-2.610;2023-03-11T01:16:03;100053.79;;;5.74;74.29
55277;BME280;41136;51.478;-2.610;2023-03-11T01:18:28;100052.01;;;6.06;73.97
55277;BME280;41136;51.478;-2.610;2023-03-11T01:20:54;100045.65;;;6.27;74.08
55277;BME280;41136;51.478;-2.610;2023-03-11T01:23:20;100040.79;;;5.68;74.22
55277;BME280;41136;51.478;-2.610;2023-03-11T01:25:44;100042.68;;;5.80;74.80
55277;BME280;41136;51.478;-2.610;2023-03-11T01:28:10;100039.40;;;5.48;74.98
55277;BME280;41136;51.478;-2.610;2023-03-11T01:30:38;100035.69;;;6.10;74.27
55277;BME280;41136;51.478;-2.610;2023-03-11T01:33:02;100040.64;;;5.02;76.29
55277;BME280;41136;51.478;-2.610;2023-03-11T01:35:29;100042.37;;;4.92;76.75
55277;BME280;41136;51.478;-2.610;2023-03-11T01:37:53;100043.96;;;5.44;76.50
55277;BME280;41136;51.478;-2.610;2023-03-11T01:40:22;100040.74;;;5.91;74.98
55277;BME280;41136;51.478;-2.610;2023-03-11T01:42:43;100041.45;;;5.37;76.30
55277;BME280;41136;51.478;-2.610;2023-03-11T01:47:37;100032.12;;;5.69;75.58
55277;BME280;41136;51.478;-2.610;2023-03-11T01:50:00;100034.58;;;5.20;76.31
55277;BME280;41136;51.478;-2.610;2023-03-11T01:52:25;100034.79;;;5.31;76.48
55277;BME280;41136;51.478;-2.610;2023-03-11T01:54:51;100025.01;;;5.57;76.18
55277;BME280;41136;51.478;-2.610;2023-03-11T01:57:17;100018.67;;;5.41;76.49
55277;BME280;41136;51.478;-2.610;2023-03-11T01:59:46;100018.95;;;5.17;77.59
55277;BME280;41136;51.478;-2.610;2023-03-11T02:02:12;100021.01;;;5.38;77.38
55277;BME280;41136;51.478;-2.610;2023-03-11T02:04:34;100028.76;;;5.14;78.99
55277;BME280;41136;51.478;-2.610;2023-03-11T02:06:58;100039.07;;;5.14;80.75
55277;BME280;41136;51.478;-2.610;2023-03-11T02:09:24;100046.26;;;4.94;82.33
55277;BME280;41136;51.478;-2.610;2023-03-11T02:11:49;100040.93;;;5.27;80.05
55277;BME280;41136;51.478;-2.610;2023-03-11T02:14:15;100031.15;;;5.08;78.63
55277;BME280;41136;51.478;-2.610;2023-03-11T02:16:40;100025.02;;;5.50;78.60
55277;BME280;41136;51.478;-2.610;2023-03-11T02:19:10;100018.95;;;5.00;79.18
55277;BME280;41136;51.478;-2.610;2023-03-11T02:21:32;100024.21;;;4.73;79.65
55277;BME280;41136;51.478;-2.610;2023-03-11T02:24:02;100018.52;;;4.93;80.48
55277;BME280;41136;51.478;-2.610;2023-03-11T02:26:26;100010.43;;;5.06;80.99
55277;BME280;41136;51.478;-2.610;2023-03-11T02:28:49;100001.79;;;4.88;81.64
55277;BME280;41136;51.478;-2.610;2023-03-11T02:31:13;100007.43;;;4.97;82.21
55277;BME280;41136;51.478;-2.610;2023-03-11T02:33:40;100006.48;;;5.46;81.40
55277;BME280;41136;51.478;-2.610;2023-03-11T02:36:05;100004.17;;;4.76;81.57
55277;BME280;41136;51.478;-2.610;2023-03-11T02:38:30;99992.79;;;4.90;81.45
55277;BME280;41136;51.478;-2.610;2023-03-11T02:40:57;99987.56;;;5.23;81.40
55277;BME280;41136;51.478;-2.610;2023-03-11T02:43:24;99985.98;;;4.93;81.16
55277;BME280;41136;51.478;-2.610;2023-03-11T02:45:47;99983.48;;;4.85;81.82
55277;BME280;41136;51.478;-2.610;2023-03-11T02:51:12;99967.58;;;5.32;76.86
55277;BME280;41136;51.478;-2.610;2023-03-11T02:53:40;99968.25;;;5.40;75.00
55277;BME280;41136;51.478;-2.610;2023-03-11T02:56:03;99964.93;;;5.35;74.90
55277;BME280;41136;51.478;-2.610;2023-03-11T02:58:33;99959.79;;;5.29;74.16
55277;BME280;41136;51.478;-2.610;2023-03-11T03:00:54;99959.72;;;5.83;74.75
55277;BME280;41136;51.478;-2.610;2023-03-11T03:03:19;99960.48;;;5.51;76.09
55277;BME280;41136;51.478;-2.610;2023-03-11T03:05:45;99961.24;;;4.47;78.14
55277;BME280;41136;51.478;-2.610;2023-03-11T03:08:11;99966.46;;;5.21;79.25
55277;BME280;41136;51.478;-2.610;2023-03-11T03:10:36;99964.25;;;5.53;79.35
55277;BME280;41136;51.478;-2.610;2023-03-11T03:13:02;99949.81;;;5.61;78.46
55277;BME280;41136;51.478;-2.610;2023-03-11T03:15:27;99940.41;;;5.20;78.88
55277;BME280;41136;51.478;-2.610;2023-03-11T03:17:52;99942.38;;;5.22;79.21
55277;BME280;41136;51.478;-2.610;2023-03-11T03:20:18;99948.22;;;4.77;80.86
55277;BME280;41136;51.478;-2.610;2023-03-11T03:22:44;99943.12;;;5.24;81.30
55277;BME280;41136;51.478;-2.610;2023-03-11T03:25:10;99936.62;;;4.86;80.80
55277;BME280;41136;51.478;-2.610;2023-03-11T03:27:34;99931.22;;;5.29;80.57
55277;BME280;41136;51.478;-2.610;2023-03-11T03:30:00;99939.42;;;4.99;81.71
55277;BME280;41136;51.478;-2.610;2023-03-11T03:32:26;99942.04;;;5.24;80.86
55277;BME280;41136;51.478;-2.610;2023-03-11T03:34:51;99945.46;;;4.73;80.18
55277;BME280;41136;51.478;-2.610;2023-03-11T03:37:17;99940.60;;;4.91;79.60
55277;BME280;41136;51.478;-2.610;2023-03-11T03:39:43;99941.59;;;5.01;80.25
55277;BME280;41136;51.478;-2.610;2023-03-11T03:42:08;99950.22;;;4.73;81.09
55277;BME280;41136;51.478;-2.610;2023-03-11T03:44:34;99959.76;;;4.94;81.27
55277;BME280;41136;51.478;-2.610;2023-03-11T03:46:59;99962.46;;;4.95;82.29
55277;BME280;41136;51.478;-2.610;2023-03-11T03:49:26;99956.11;;;5.13;81.54
55277;BME280;41136;51.478;-2.610;2023-03-11T03:51:50;99952.48;;;4.93;79.77
55277;BME280;41136;51.478;-2.610;2023-03-11T03:54:16;99954.61;;;5.11;79.79
55277;BME280;41136;51.478;-2.610;2023-03-11T03:56:42;99962.44;;;5.39;79.24
55277;BME280;41136;51.478;-2.610;2023-03-11T03:59:07;99968.29;;;5.08;80.11
55277;BME280;41136;51.478;-2.610;2023-03-11T04:01:32;99966.40;;;5.17;79.41
55277;BME280;41136;51.478;-2.610;2023-03-11T04:03:58;99964.05;;;5.43;78.49
55277;BME280;41136;51.478;-2.610;2023-03-11T04:06:26;99977.44;;;5.62;79.83
55277;BME280;41136;51.478;-2.610;2023-03-11T04:08:50;99981.13;;;5.34;77.76
55277;BME280;41136;51.478;-2.610;2023-03-11T04:11:15;99979.30;;;5.55;76.91
55277;BME280;41136;51.478;-2.610;2023-03-11T04:13:40;99984.09;;;5.44;76.49
55277;BME280;41136;51.478;-2.610;2023-03-11T04:16:07;99989.94;;;5.70;76.08
55277;BME280;41136;51.478;-2.610;2023-03-11T04:18:32;99993.29;;;5.27;76.42
55277;BME280;41136;51.478;-2.610;2023-03-11T04:20:57;99990.66;;;5.53;75.19
55277;BME280;41136;51.478;-2.610;2023-03-11T04:23:22;99983.89;;;5.23;76.06
55277;BME280;41136;51.478;-2.610;2023-03-11T04:25:48;99977.88;;;5.19;76.48
55277;BME280;41136;51.478;-2.610;2023-03-11T04:28:14;99974.51;;;5.22;76.96
55277;BME280;41136;51.478;-2.610;2023-03-11T04:30:40;99974.35;;;5.06;77.76
55277;BME280;41136;51.478;-2.610;2023-03-11T04:33:05;99968.19;;;5.20;76.82
55277;BME280;41136;51.478;-2.610;2023-03-11T04:35:30;99962.49;;;4.91;76.61
55277;BME280;41136;51.478;-2.610;2023-03-11T04:37:55;99957.71;;;4.76;77.03
55277;BME280;41136;51.478;-2.610;2023-03-11T04:40:21;99963.20;;;4.82;78.16
55277;BME280;41136;51.478;-2.610;2023-03-11T04:42:47;99969.73;;;4.76;79.35
55277;BME280;41136;51.478;-2.610;2023-03-11T04:45:12;99975.51;;;5.04;79.22
55277;BME280;41136;51.478;-2.610;2023-03-11T04:47:37;99979.20;;;4.29;81.05
55277;BME280;41136;51.478;-2.610;2023-03-11T04:50:03;99973.30;;;4.80;80.85
55277;BME280;41136;51.478;-2.610;2023-03-11T04:52:28;99981.32;;;4.65;79.28
55277;BME280;41136;51.478;-2.610;2023-03-11T04:54:54;99992.82;;;4.79;78.81
55277;BME280;41136;51.478;-2.610;2023-03-11T04:57:19;99989.43;;;4.39;79.63
55277;BME280;41136;51.478;-2.610;2023-03-11T04:59:45;99990.01;;;4.98;77.23
55277;BME280;41136;51.478;-2.610;2023-03-11T05:02:10;99996.74;;;4.79;77.24
55277;BME280;41136;51.478;-2.610;2023-03-11T05:04:36;100000.41;;;4.58;78.02
55277;BME280;41136;51.478;-2.610;2023-03-11T05:07:01;100004.68;;;4.52;77.25
55277;BME280;41136;51.478;-2.610;2023-03-11T05:09:27;100013.24;;;4.66;76.85
55277;BME280;41136;51.478;-2.610;2023-03-11T05:11:53;100022.06;;;4.87;77.95
55277;BME280;41136;51.478;-2.610;2023-03-11T05:14:18;100022.46;;;4.91;77.70
55277;BME280;41136;51.478;-2.610;2023-03-11T05:16:43;100032.23;;;4.27;79.76
55277;BME280;41136;51.478;-2.610;2023-03-11T05:19:09;100033.42;;;4.69;78.24
55277;BME280;41136;51.478;-2.610;2023-03-11T05:21:33;100033.21;;;4.33;76.83
55277;BME280;41136;51.478;-2.610;2023-03-11T05:23:59;100029.72;;;4.53;76.30
55277;BME280;41136;51.478;-2.610;2023-03-11T05:26:24;100024.19;;;3.89;77.90
55277;BME280;41136;51.478;-2.610;2023-03-11T05:28:49;100024.09;;;4.03;79.25
55277;BME280;41136;51.478;-2.610;2023-03-11T05:31:15;100018.19;;;3.13;81.25
55277;BME280;41136;51.478;-2.610;2023-03-11T05:33:41;100007.92;;;3.46;82.15
55277;BME280;41136;51.478;-2.610;2023-03-11T05:36:08;100000.45;;;3.38;82.78
55277;BME280;41136;51.478;-2.610;2023-03-11T05:38:32;99985.42;;;3.21;83.12
55277;BME280;41136;51.478;-2.610;2023-03-11T05:40:57;99978.27;;;3.20;84.68
55277;BME280;41136;51.478;-2.610;2023-03-11T05:43:23;99976.47;;;3.39;84.99
55277;BME280;41136;51.478;-2.610;2023-03-11T05:45:48;99978.40;;;3.52;84.88
55277;BME280;41136;51.478;-2.610;2023-03-11T05:48:13;99988.75;;;3.52;84.77
55277;BME280;41136;51.478;-2.610;2023-03-11T05:50:39;100016.69;;;3.18;85.62
55277;BME280;41136;51.478;-2.610;2023-03-11T05:53:05;100037.15;;;3.64;84.63
55277;BME280;41136;51.478;-2.610;2023-03-11T05:55:30;100045.34;;;4.26;83.43
55277;BME280;41136;51.478;-2.610;2023-03-11T05:57:55;100038.70;;;4.28;80.63
55277;BME280;41136;51.478;-2.610;2023-03-11T06:00:21;100020.76;;;4.95;77.10
55277;BME280;41136;51.478;-2.610;2023-03-11T06:02:47;100010.72;;;4.45;76.51
55277;BME280;41136;51.478;-2.610;2023-03-11T06:05:12;100000.59;;;4.72;75.72
55277;BME280;41136;51.478;-2.610;2023-03-11T06:07:37;99994.74;;;4.69;75.87
55277;BME280;41136;51.478;-2.610;2023-03-11T06:10:04;100006.61;;;4.47;76.26
55277;BME280;41136;51.478;-2.610;2023-03-11T06:12:28;100019.58;;;4.79;76.69
55277;BME280;41136;51.478;-2.610;2023-03-11T06:14:53;100033.82;;;4.77;75.89
55277;BME280;41136;51.478;-2.610;2023-03-11T06:17:19;100040.63;;;4.77;75.03
55277;BME280;41136;51.478;-2.610;2023-03-11T06:19:44;100033.53;;;4.76;73.59
55277;BME280;41136;51.478;-2.610;2023-03-11T06:22:09;100032.39;;;4.72;73.38
55277;BME280;41136;51.478;-2.610;2023-03-11T06:24:35;100045.63;;;4.71;74.03
55277;BME280;41136;51.478;-2.610;2023-03-11T06:27:00;100049.05;;;5.28;74.25
55277;BME280;41136;51.478;-2.610;2023-03-11T06:29:26;100052.51;;;5.25;73.36
55277;BME280;41136;51.478;-2.610;2023-03-11T06:31:52;100045.96;;;5.18;73.65
55277;BME280;41136;51.478;-2.610;2023-03-11T06:34:17;100038.40;;;4.94;72.59
55277;BME280;41136;51.478;-2.610;2023-03-11T06:36:42;100041.30;;;4.76;72.57
55277;BME280;41136;51.478;-2.610;2023-03-11T06:39:11;100037.78;;;5.11;73.59
55277;BME280;41136;51.478;-2.610;2023-03-11T06:41:33;100033.19;;;4.94;74.12
55277;BME280;41136;51.478;-2.610;2023-03-11T06:43:59;100029.79;;;4.75;74.49
55277;BME280;41136;51.478;-2.610;2023-03-11T06:46:24;100025.58;;;4.55;75.71
55277;BME280;41136;51.478;-2.610;2023-03-11T06:48:50;100028.79;;;5.18;76.12
55277;BME280;41136;51.478;-2.610;2023-03-11T06:51:15;100031.18;;;4.65;75.11
55277;BME280;41136;51.478;-2.610;2023-03-11T06:53:40;100028.30;;;4.60;75.35
55277;BME280;41136;51.478;-2.610;2023-03-11T06:56:08;100038.11;;;4.96;74.90
55277;BME280;41136;51.478;-2.610;2023-03-11T06:58:33;100047.76;;;5.05;75.31
55277;BME280;41136;51.478;-2.610;2023-03-11T07:01:00;100047.69;;;4.83;75.23
55277;BME280;41136;51.478;-2.610;2023-03-11T07:03:23;100047.45;;;4.88;73.83
55277;BME280;41136;51.478;-2.610;2023-03-11T07:05:50;100043.31;;;5.39;73.49
55277;BME280;41136;51.478;-2.610;2023-03-11T07:08:13;100039.73;;;5.03;74.05
55277;BME280;41136;51.478;-2.610;2023-03-11T07:10:39;100042.13;;;5.22;74.65
55277;BME280;41136;51.478;-2.610;2023-03-11T07:13:04;100042.19;;;5.32;74.55
55277;BME280;41136;51.478;-2.610;2023-03-11T07:15:29;100049.19;;;4.84;73.74
55277;BME280;41136;51.478;-2.610;2023-03-11T07:17:54;100050.12;;;4.60;73.56
55277;BME280;41136;51.478;-2.610;2023-03-11T07:20:20;100045.91;;;4.93;74.11
55277;BME280;41136;51.478;-2.610;2023-03-11T07:22:46;100046.96;;;4.52;74.47
55277;BME280;41136;51.478;-2.610;2023-03-11T07:25:11;100044.69;;;4.50;74.20
55277;BME280;41136;51.478;-2.610;2023-03-11T07:27:36;100039.17;;;4.14;74.19
55277;BME280;41136;51.478;-2.610;2023-03-11T07:30:03;100031.63;;;4.29;76.09
55277;BME280;41136;51.478;-2.610;2023-03-11T07:32:27;100034.54;;;4.56;76.20
55277;BME280;41136;51.478;-2.610;2023-03-11T07:34:53;100037.92;;;4.65;76.79
55277;BME280;41136;51.478;-2.610;2023-03-11T07:37:19;100040.61;;;3.79;76.54
55277;BME280;41136;51.478;-2.610;2023-03-11T07:39:44;100045.00;;;4.69;77.12
55277;BME280;41136;51.478;-2.610;2023-03-11T07:42:09;100051.39;;;4.63;76.68
55277;BME280;41136;51.478;-2.610;2023-03-11T07:44:35;100053.37;;;4.87;77.18
55277;BME280;41136;51.478;-2.610;2023-03-11T07:47:01;100053.63;;;4.97;76.76
55277;BME280;41136;51.478;-2.610;2023-03-11T07:49:26;100051.36;;;4.74;75.72
55277;BME280;41136;51.478;-2.610;2023-03-11T07:51:51;100050.28;;;4.88;75.49
55277;BME280;41136;51.478;-2.610;2023-03-11T07:54:16;100055.30;;;5.04;74.82
55277;BME280;41136;51.478;-2.610;2023-03-11T07:56:42;100060.81;;;4.81;75.13
55277;BME280;41136;51.478;-2.610;2023-03-11T07:59:07;100066.17;;;5.40;74.90
55277;BME280;41136;51.478;-2.610;2023-03-11T08:01:33;100066.66;;;5.62;73.67
55277;BME280;41136;51.478;-2.610;2023-03-11T08:03:59;100060.53;;;4.92;73.44
55277;BME280;41136;51.478;-2.610;2023-03-11T08:06:26;100059.34;;;5.55;73.46
55277;BME280;41136;51.478;-2.610;2023-03-11T08:08:49;100061.64;;;5.50;73.80
55277;BME280;41136;51.478;-2.610;2023-03-11T08:11:15;100058.30;;;5.10;74.86
55277;BME280;41136;51.478;-2.610;2023-03-11T08:13:40;100058.22;;;4.86;72.36
55277;BME280;41136;51.478;-2.610;2023-03-11T08:16:07;100062.04;;;5.13;73.11
55277;BME280;41136;51.478;-2.610;2023-03-11T08:18:32;100064.01;;;5.12;72.79
55277;BME280;41136;51.478;-2.610;2023-03-11T08:20:56;100069.63;;;4.61;73.23
55277;BME280;41136;51.478;-2.610;2023-03-11T08:23:21;100071.10;;;5.10;74.81
55277;BME280;41136;51.478;-2.610;2023-03-11T08:25:47;100069.56;;;5.41;75.33
55277;BME280;41136;51.478;-2.610;2023-03-11T08:28:12;100067.16;;;5.22;74.95
55277;BME280;41136;51.478;-2.610;2023-03-11T08:30:37;100069.27;;;4.87;75.88
55277;BME280;41136;51.478;-2.610;2023-03-11T08:33:03;100067.52;;;5.22;77.63
55277;BME280;41136;51.478;-2.610;2023-03-11T08:35:28;100069.85;;;4.58;77.89
55277;BME280;41136;51.478;-2.610;2023-03-11T08:37:54;100069.02;;;4.10;81.10
55277;BME280;41136;51.478;-2.610;2023-03-11T08:40:19;100070.66;;;4.72;83.07
55277;BME280;41136;51.478;-2.610;2023-03-11T08:42:45;100073.39;;;4.79;82.14
55277;BME280;41136;51.478;-2.610;2023-03-11T08:45:11;100073.09;;;4.46;84.00
55277;BME280;41136;51.478;-2.610;2023-03-11T08:47:37;100081.07;;;4.58;81.96
55277;BME280;41136;51.478;-2.610;2023-03-11T08:50:01;100079.96;;;5.74;80.85
55277;BME280;41136;51.478;-2.610;2023-03-11T08:52:26;100084.48;;;5.02;82.54
55277;BME280;41136;51.478;-2.610;2023-03-11T08:54:52;100082.38;;;4.82;82.31
55277;BME280;41136;51.478;-2.610;2023-03-11T08:57:17;100084.28;;;5.03;83.55
55277;BME280;41136;51.478;-2.610;2023-03-11T08:59:43;100081.65;;;4.60;85.01
55277;BME280;41136;51.478;-2.610;2023-03-11T09:02:09;100078.67;;;4.09;85.10
55277;BME280;41136;51.478;-2.610;2023-03-11T09:04:33;100075.86;;;4.00;86.52
55277;BME280;41136;51.478;-2.610;2023-03-11T09:06:59;100068.48;;;4.35;87.86
55277;BME280;41136;51.478;-2.610;2023-03-11T09:09:24;100068.66;;;4.36;90.94
55277;BME280;41136;51.478;-2.610;2023-03-11T09:11:50;100068.12;;;4.38;90.56
55277;BME280;41136;51.478;-2.610;2023-03-11T09:14:15;100063.47;;;4.33;91.07
55277;BME280;41136;51.478;-2.610;2023-03-11T09:16:41;100065.02;;;4.79;91.64
55277;BME280;41136;51.478;-2.610;2023-03-11T09:19:06;100065.77;;;5.15;91.50
55277;BME280;41136;51.478;-2.610;2023-03-11T09:21:32;100066.84;;;4.95;90.57
55277;BME280;41136;51.478;-2.610;2023-03-11T09:23:58;100067.45;;;5.48;88.33
55277;BME280;41136;51.478;-2.610;2023-03-11T09:26:23;100068.48;;;5.30;88.54
55277;BME280;41136;51.478;-2.610;2023-03-11T09:28:49;100064.96;;;5.27;88.54
55277;BME280;41136;51.478;-2.610;2023-03-11T09:31:15;100059.48;;;5.46;89.02
55277;BME280;41136;51.478;-2.610;2023-03-11T09:33:41;100054.86;;;5.15;89.87
55277;BME280;41136;51.478;-2.610;2023-03-11T09:36:06;100052.28;;;5.24;90.68
55277;BME280;41136;51.478;-2.610;2023-03-11T09:38:31;100047.17;;;5.22;90.02
55277;BME280;41136;51.478;-2.610;2023-03-11T09:41:00;100047.65;;;5.57;90.27
55277;BME280;41136;51.478;-2.610;2023-03-11T09:43:33;100049.74;;;5.42;90.56
55277;BME280;41136;51.478;-2.610;2023-03-11T09:45:52;100045.89;;;5.44;89.29
55277;BME280;41136;51.478;-2.610;2023-03-11T09:48:19;100042.75;;;5.94;89.57
55277;BME280;41136;51.478;-2.610;2023-03-11T09:50:41;100041.85;;;5.22;91.48
55277;BME280;41136;51.478;-2.610;2023-03-11T09:53:11;100036.09;;;5.32;91.27
55277;BME280;41136;51.478;-2.610;2023-03-11T09:55:33;100031.28;;;5.74;91.04
55277;BME280;41136;51.478;-2.610;2023-03-11T09:57:56;100029.27;;;5.95;88.91
55277;BME280;41136;51.478;-2.610;2023-03-11T10:00:20;100031.44;;;5.84;89.97
55277;BME280;41136;51.478;-2.610;2023-03-11T10:02:44;100027.93;;;5.82;89.23
55277;BME280;41136;51.478;-2.610;2023-03-11T10:05:15;100025.59;;;6.06;89.84
55277;BME280;41136;51.478;-2.610;2023-03-11T10:07:39;100026.65;;;6.13;90.78
55277;BME280;41136;51.478;-2.610;2023-03-11T10:10:01;100023.62;;;5.71;90.40
55277;BME280;41136;51.478;-2.610;2023-03-11T10:12:37;100015.58;;;5.77;90.97
55277;BME280;41136;51.478;-2.610;2023-03-11T10:15:02;100014.12;;;5.93;90.87
55277;BME280;41136;51.478;-2.610;2023-03-11T10:17:26;100013.72;;;6.50;88.93
55277;BME280;41136;51.478;-2.610;2023-03-11T10:19:47;100015.71;;;5.82;89.40
55277;BME280;41136;51.478;-2.610;2023-03-11T10:22:13;100015.53;;;5.45;90.27
55277;BME280;41136;51.478;-2.610;2023-03-11T10:24:44;100016.87;;;4.85;92.69
55277;BME280;41136;51.478;-2.610;2023-03-11T10:27:01;100019.42;;;5.50;95.65
55277;BME280;41136;51.478;-2.610;2023-03-11T10:29:31;100020.71;;;5.38;96.80
55277;BME280;41136;51.478;-2.610;2023-03-11T10:31:55;100023.73;;;4.82;99.55
55277;BME280;41136;51.478;-2.610;2023-03-11T10:34:19;100019.77;;;5.25;99.79
55277;BME280;41136;51.478;-2.610;2023-03-11T10:36:48;100017.75;;;4.91;99.48
55277;BME280;41136;51.478;-2.610;2023-03-11T10:39:08;100017.09;;;5.49;100.00
55277;BME280;41136;51.478;-2.610;2023-03-11T10:41:39;100006.13;;;5.45;100.00
55277;BME280;41136;51.478;-2.610;2023-03-11T10:44:01;100005.37;;;5.34;100.00
55277;BME280;41136;51.478;-2.610;2023-03-11T10:46:24;100005.94;;;5.58;100.00
55277;BME280;41136;51.478;-2.610;2023-03-11T10:48:47;99995.55;;;5.48;100.00
55277;BME280;41136;51.478;-2.610;2023-03-11T10:51:15;99995.47;;;5.71;100.00
55277;BME280;41136;51.478;-2.610;2023-03-11T10:53:44;99993.42;;;6.20;98.72
55277;BME280;41136;51.478;-2.610;2023-03-11T10:56:04;100000.62;;;6.26;98.57
55277;BME280;41136;51.478;-2.610;2023-03-11T10:58:30;99997.06;;;6.17;99.29
55277;BME280;41136;51.478;-2.610;2023-03-11T11:01:02;99999.49;;;6.15;99.70
55277;BME280;41136;51.478;-2.610;2023-03-11T11:03:22;99993.44;;;6.34;98.94
55277;BME280;41136;51.478;-2.610;2023-03-11T11:05:58;99995.06;;;6.15;98.90
55277;BME280;41136;51.478;-2.610;2023-03-11T11:08:13;99994.03;;;6.37;98.35
55277;BME280;41136;51.478;-2.610;2023-03-11T11:15:30;99998.39;;;6.27;100.00
55277;BME280;41136;51.478;-2.610;2023-03-11T11:17:56;100003.05;;;6.23;99.50
55277;BME280;41136;51.478;-2.610;2023-03-11T11:20:19;100002.27;;;6.53;99.56
55277;BME280;41136;51.478;-2.610;2023-03-11T11:22:49;99997.89;;;6.28;98.85
55277;BME280;41136;51.478;-2.610;2023-03-11T11:27:35;100001.03;;;6.66;98.36
55277;BME280;41136;51.478;-2.610;2023-03-11T11:30:13;100006.86;;;7.07;97.41
55277;BME280;41136;51.478;-2.610;2023-03-11T11:32:26;100003.96;;;7.10;97.55
55277;BME280;41136;51.478;-2.610;2023-03-11T11:34:58;100002.10;;;7.48;96.51
55277;BME280;41136;51.478;-2.610;2023-03-11T11:37:17;100005.97;;;7.06;95.09
55277;BME280;41136;51.478;-2.610;2023-03-11T11:39:46;100003.92;;;6.44;94.78
55277;BME280;41136;51.478;-2.610;2023-03-11T11:42:09;100000.82;;;7.50;94.56
55277;BME280;41136;51.478;-2.610;2023-03-11T11:44:34;99995.06;;;7.79;93.27
55277;BME280;41136;51.478;-2.610;2023-03-11T11:47:03;99997.12;;;7.72;92.33
55277;BME280;41136;51.478;-2.610;2023-03-11T11:49:27;99995.52;;;7.80;90.51
55277;BME280;41136;51.478;-2.610;2023-03-11T11:51:52;99997.58;;;8.17;88.20
55277;BME280;41136;51.478;-2.610;2023-03-11T11:54:17;99994.59;;;8.06;87.58
55277;BME280;41136;51.478;-2.610;2023-03-11T11:56:40;99993.29;;;8.04;87.12
55277;BME280;41136;51.478;-2.610;2023-03-11T11:59:14;99988.64;;;8.18;87.58
55277;BME280;41136;51.478;-2.610;2023-03-11T12:01:38;99987.08;;;7.98;85.37
55277;BME280;41136;51.478;-2.610;2023-03-11T12:04:15;99981.31;;;7.82;86.22
55277;BME280;41136;51.478;-2.610;2023-03-11T12:06:28;99980.00;;;7.77;87.53
55277;BME280;41136;51.478;-2.610;2023-03-11T12:08:58;99968.29;;;7.93;87.42
55277;BME280;41136;51.478;-2.610;2023-03-11T12:11:16;99962.48;;;7.34;88.95
55277;BME280;41136;51.478;-2.610;2023-03-11T12:13:47;99957.04;;;7.89;89.31
55277;BME280;41136;51.478;-2.610;2023-03-11T12:16:10;99950.97;;;7.86;88.76
55277;BME280;41136;51.478;-2.610;2023-03-11T12:18:33;99960.71;;;7.22;88.51
55277;BME280;41136;51.478;-2.610;2023-03-11T12:20:56;99958.23;;;6.96;89.74
55277;BME280;41136;51.478;-2.610;2023-03-11T12:23:30;99956.85;;;7.72;88.45
55277;BME280;41136;51.478;-2.610;2023-03-11T12:28:18;99951.48;;;7.85;87.19
55277;BME280;41136;51.478;-2.610;2023-03-11T12:30:41;99947.76;;;8.11;86.67
55277;BME280;41136;51.478;-2.610;2023-03-11T12:33:03;99949.35;;;7.92;88.11
55277;BME280;41136;51.478;-2.610;2023-03-11T12:35:30;99944.63;;;7.97;87.76
55277;BME280;41136;51.478;-2.610;2023-03-11T12:38:03;99930.49;;;8.08;85.27
55277;BME280;41136;51.478;-2.610;2023-03-11T12:42:48;99926.13;;;7.68;84.84
55277;BME280;41136;51.478;-2.610;2023-03-11T12:47:34;99916.62;;;7.75;87.83
55277;BME280;41136;51.478;-2.610;2023-03-11T12:52:27;99911.29;;;7.97;89.25
55277;BME280;41136;51.478;-2.610;2023-03-11T12:57:28;99911.47;;;8.22;88.25
55277;BME280;41136;51.478;-2.610;2023-03-11T12:59:51;99904.97;;;8.35;83.91
55277;BME280;41136;51.478;-2.610;2023-03-11T13:02:22;99907.20;;;8.02;81.93
55277;BME280;41136;51.478;-2.610;2023-03-11T13:04:41;99895.66;;;7.97;83.20
55277;BME280;41136;51.478;-2.610;2023-03-11T13:09:23;99891.96;;;7.53;85.24